sensor_id;sensor_type;location;lat;lon;timestamp;pressure;altitude;pressure_sealevel;temperature;humidity
7986;BME280;4038;42.612;23.066;2022-08-03T00:02:01;93135.47;;;34.22;nan
7986;BME280;4038;42.612;23.066;2022-08-03T00:04:28;93135.22;;;34.71;nan
7986;BME280;4038;42.612;23.066;2022-08-03T00:06:53;93137.66;;;34.79;nan
7986;BME280;4038;42.612;23.066;2022-08-03T00:09:18;93136.31;;;34.82;nan
7986;BME280;4038;42.612;23.066;2022-08-03T00:11:44;93129.03;;;34.59;nan
7986;BME280;4038;42.612;23.066;2022-08-03T00:14:09;93131.75;;;34.00;nan
7986;BME280;4038;42.612;23.066;2022-08-03T00:16:35;93132.16;;;34.28;nan
7986;BME280;4038;42.612;23.066;2022-08-03T00:19:01;93127.44;;;32.34;nan
7986;BME280;4038;42.612;23.066;2022-08-03T00:21:27;93130.53;;;31.22;nan
7986;BME280;4038;42.612;23.066;2022-08-03T00:23:52;93132.22;;;31.57;nan
7986;BME280;4038;42.612;23.066;2022-08-03T00:26:19;93120.88;;;31.57;nan
7986;BME280;4038;42.612;23.066;2022-08-03T00:28:44;93125.31;;;31.89;nan
7986;BME280;4038;42.612;23.066;2022-08-03T00:31:10;93127.50;;;32.36;nan
7986;BME280;4038;42.612;23.066;2022-08-03T00:33:35;93122.38;;;31.58;nan
7986;BME280;4038;42.612;23.066;2022-08-03T00:36:00;93127.88;;;32.44;nan
7986;BME280;4038;42.612;23.066;2022-08-03T00:38:26;93124.38;;;33.42;nan
7986;BME280;4038;42.612;23.066;2022-08-03T00:40:51;93129.97;;;32.59;nan
7986;BME280;4038;42.612;23.066;2022-08-03T00:43:18;93127.13;;;32.28;nan
7986;BME280;4038;42.612;23.066;2022-08-03T00:45:43;93128.06;;;31.87;nan
7986;BME280;4038;42.612;23.066;2022-08-03T00:48:10;93129.50;;;33.12;nan
7986;BME280;4038;42.612;23.066;2022-08-03T00:50:41;93130.19;;;34.32;nan
7986;BME280;4038;42.612;23.066;2022-08-03T00:53:09;93126.34;;;34.43;nan
7986;BME280;4038;42.612;23.066;2022-08-03T00:55:36;93129.44;;;34.32;nan
7986;BME280;4038;42.612;23.066;2022-08-03T00:58:02;93115.13;;;33.41;nan
7986;BME280;4038;42.612;23.066;2022-08-03T01:00:33;93127.72;;;32.71;nan
7986;BME280;4038;42.612;23.066;2022-08-03T01:03:01;93121.00;;;31.88;nan
7986;BME280;4038;42.612;23.066;2022-08-03T01:05:26;93111.97;;;31.92;nan
7986;BME280;4038;42.612;23.066;2022-08-03T01:11:00;93116.53;;;31.83;nan
7986;BME280;4038;42.612;23.066;2022-08-03T01:16:06;93110.72;;;31.65;nan
7986;BME280;4038;42.612;23.066;2022-08-03T01:18:38;93110.03;;;31.80;nan
7986;BME280;4038;42.612;23.066;2022-08-03T01:21:11;93114.78;;;32.37;nan
7986;BME280;4038;42.612;23.066;2022-08-03T01:23:48;93119.75;;;32.07;nan
7986;BME280;4038;42.612;23.066;2022-08-03T01:26:40;93120.66;;;32.72;nan
7986;BME280;4038;42.612;23.066;2022-08-03T01:32:05;93108.84;;;32.31;nan
7986;BME280;4038;42.612;23.066;2022-08-03T01:34:36;93117.31;;;32.93;nan
7986;BME280;4038;42.612;23.066;2022-08-03T01:37:05;93116.53;;;32.60;nan
7986;BME280;4038;42.612;23.066;2022-08-03T01:39:34;93119.28;;;32.42;nan
7986;BME280;4038;42.612;23.066;2022-08-03T01:42:03;93111.75;;;33.98;nan
7986;BME280;4038;42.612;23.066;2022-08-03T01:44:33;93116.91;;;33.17;nan
7986;BME280;4038;42.612;23.066;2022-08-03T01:47:01;93100.03;;;33.54;nan
7986;BME280;4038;42.612;23.066;2022-08-03T01:49:29;93108.09;;;32.14;nan
7986;BME280;4038;42.612;23.066;2022-08-03T01:51:57;93113.03;;;31.55;nan
7986;BME280;4038;42.612;23.066;2022-08-03T01:54:24;93116.59;;;31.69;nan
7986;BME280;4038;42.612;23.066;2022-08-03T01:56:51;93110.84;;;31.11;nan
7986;BME280;4038;42.612;23.066;2022-08-03T01:59:19;93114.25;;;31.36;nan
7986;BME280;4038;42.612;23.066;2022-08-03T02:01:47;93122.03;;;31.22;nan
7986;BME280;4038;42.612;23.066;2022-08-03T02:04:16;93113.50;;;31.79;nan
7986;BME280;4038;42.612;23.066;2022-08-03T02:06:44;93129.97;;;31.39;nan
7986;BME280;4038;42.612;23.066;2022-08-03T02:09:11;93106.63;;;31.68;nan
7986;BME280;4038;42.612;23.066;2022-08-03T02:11:37;93117.63;;;31.76;nan
7986;BME280;4038;42.612;23.066;2022-08-03T02:14:04;93108.84;;;32.46;nan
7986;BME280;4038;42.612;23.066;2022-08-03T02:16:32;93107.28;;;32.90;nan
7986;BME280;4038;42.612;23.066;2022-08-03T02:19:00;93115.75;;;30.55;nan
7986;BME280;4038;42.612;23.066;2022-08-03T02:21:27;93114.06;;;29.72;nan
7986;BME280;4038;42.612;23.066;2022-08-03T02:23:54;93100.91;;;29.15;nan
7986;BME280;4038;42.612;23.066;2022-08-03T02:26:21;93100.75;;;29.24;nan
7986;BME280;4038;42.612;23.066;2022-08-03T02:28:51;93113.84;;;31.58;nan
7986;BME280;4038;42.612;23.066;2022-08-03T02:31:22;93116.44;;;32.42;nan
7986;BME280;4038;42.612;23.066;2022-08-03T02:33:51;93117.63;;;32.37;nan
7986;BME280;4038;42.612;23.066;2022-08-03T02:36:23;93116.81;;;32.18;nan
7986;BME280;4038;42.612;23.066;2022-08-03T02:38:53;93112.19;;;32.11;nan
7986;BME280;4038;42.612;23.066;2022-08-03T02:41:23;93113.59;;;32.73;nan
7986;BME280;4038;42.612;23.066;2022-08-03T02:43:53;93111.56;;;33.58;nan
7986;BME280;4038;42.612;23.066;2022-08-03T02:46:24;93103.53;;;32.54;nan
7986;BME280;4038;42.612;23.066;2022-08-03T02:48:51;93110.41;;;29.95;nan
7986;BME280;4038;42.612;23.066;2022-08-03T02:51:19;93096.38;;;29.72;nan
7986;BME280;4038;42.612;23.066;2022-08-03T02:53:46;93107.81;;;30.13;nan
7986;BME280;4038;42.612;23.066;2022-08-03T02:56:13;93115.22;;;29.93;nan
7986;BME280;4038;42.612;23.066;2022-08-03T02:58:42;93104.41;;;31.67;nan
7986;BME280;4038;42.612;23.066;2022-08-03T03:01:10;93098.50;;;31.76;nan
7986;BME280;4038;42.612;23.066;2022-08-03T03:03:36;93114.38;;;31.25;nan
7986;BME280;4038;42.612;23.066;2022-08-03T03:06:03;93118.06;;;30.73;nan
7986;BME280;4038;42.612;23.066;2022-08-03T03:08:28;93106.09;;;32.33;nan
7986;BME280;4038;42.612;23.066;2022-08-03T03:10:57;93107.78;;;31.50;nan
7986;BME280;4038;42.612;23.066;2022-08-03T03:13:24;93117.44;;;31.58;nan
7986;BME280;4038;42.612;23.066;2022-08-03T03:15:51;93109.00;;;32.35;nan
7986;BME280;4038;42.612;23.066;2022-08-03T03:18:19;93115.19;;;32.00;nan
7986;BME280;4038;42.612;23.066;2022-08-03T03:20:46;93109.59;;;33.45;nan
7986;BME280;4038;42.612;23.066;2022-08-03T03:23:12;93121.88;;;33.67;nan
7986;BME280;4038;42.612;23.066;2022-08-03T03:25:39;93117.25;;;32.91;nan
7986;BME280;4038;42.612;23.066;2022-08-03T03:28:05;93122.88;;;31.97;nan
7986;BME280;4038;42.612;23.066;2022-08-03T03:30:30;93117.22;;;31.68;nan
7986;BME280;4038;42.612;23.066;2022-08-03T03:32:57;93126.78;;;32.51;nan
7986;BME280;4038;42.612;23.066;2022-08-03T03:35:22;93131.03;;;31.05;nan
7986;BME280;4038;42.612;23.066;2022-08-03T03:37:48;93129.81;;;31.94;nan
7986;BME280;4038;42.612;23.066;2022-08-03T03:40:13;93134.78;;;31.51;nan
7986;BME280;4038;42.612;23.066;2022-08-03T03:42:39;93121.81;;;31.32;nan
7986;BME280;4038;42.612;23.066;2022-08-03T03:45:06;93131.50;;;31.56;nan
7986;BME280;4038;42.612;23.066;2022-08-03T03:47:35;93125.78;;;31.99;nan
7986;BME280;4038;42.612;23.066;2022-08-03T03:50:02;93138.69;;;32.63;nan
7986;BME280;4038;42.612;23.066;2022-08-03T03:52:28;93144.16;;;30.98;nan
7986;BME280;4038;42.612;23.066;2022-08-03T03:54:54;93146.81;;;31.08;nan
7986;BME280;4038;42.612;23.066;2022-08-03T03:57:19;93142.50;;;30.27;nan
7986;BME280;4038;42.612;23.066;2022-08-03T03:59:44;93141.78;;;30.26;nan
7986;BME280;4038;42.612;23.066;2022-08-03T04:02:11;93144.00;;;30.28;nan
7986;BME280;4038;42.612;23.066;2022-08-03T04:04:37;93143.00;;;29.10;nan
7986;BME280;4038;42.612;23.066;2022-08-03T04:07:25;93148.66;;;30.62;nan
7986;BME280;4038;42.612;23.066;2022-08-03T04:10:14;93132.38;;;29.46;nan
7986;BME280;4038;42.612;23.066;2022-08-03T04:13:00;93139.88;;;30.56;nan
7986;BME280;4038;42.612;23.066;2022-08-03T04:15:27;93139.56;;;29.86;nan
7986;BME280;4038;42.612;23.066;2022-08-03T04:17:56;93146.97;;;29.79;nan
7986;BME280;4038;42.612;23.066;2022-08-03T04:20:26;93127.00;;;29.38;nan
7986;BME280;4038;42.612;23.066;2022-08-03T04:22:53;93143.47;;;30.32;nan
7986;BME280;4038;42.612;23.066;2022-08-03T04:25:20;93138.81;;;30.63;nan
7986;BME280;4038;42.612;23.066;2022-08-03T04:27:49;93147.63;;;31.24;nan
7986;BME280;4038;42.612;23.066;2022-08-03T04:30:17;93147.56;;;30.42;nan
7986;BME280;4038;42.612;23.066;2022-08-03T04:32:44;93142.22;;;29.70;nan
7986;BME280;4038;42.612;23.066;2022-08-03T04:35:14;93139.16;;;30.97;nan
7986;BME280;4038;42.612;23.066;2022-08-03T04:37:42;93146.22;;;34.06;nan
7986;BME280;4038;42.612;23.066;2022-08-03T04:40:13;93151.00;;;34.19;nan
7986;BME280;4038;42.612;23.066;2022-08-03T04:42:39;93154.91;;;34.10;nan
7986;BME280;4038;42.612;23.066;2022-08-03T04:45:07;93157.88;;;32.17;nan
7986;BME280;4038;42.612;23.066;2022-08-03T04:47:36;93166.31;;;33.25;nan
7986;BME280;4038;42.612;23.066;2022-08-03T04:50:04;93159.34;;;33.80;nan
7986;BME280;4038;42.612;23.066;2022-08-03T04:52:30;93164.88;;;32.93;nan
7986;BME280;4038;42.612;23.066;2022-08-03T04:54:56;93153.41;;;34.44;nan
7986;BME280;4038;42.612;23.066;2022-08-03T04:57:22;93153.59;;;34.86;nan
7986;BME280;4038;42.612;23.066;2022-08-03T04:59:47;93164.75;;;35.39;nan
7986;BME280;4038;42.612;23.066;2022-08-03T05:02:17;93166.75;;;33.87;nan
7986;BME280;4038;42.612;23.066;2022-08-03T05:04:42;93173.31;;;35.81;nan
7986;BME280;4038;42.612;23.066;2022-08-03T05:07:13;93169.22;;;34.12;nan
7986;BME280;4038;42.612;23.066;2022-08-03T05:09:39;93165.31;;;34.59;nan
7986;BME280;4038;42.612;23.066;2022-08-03T05:12:05;93169.94;;;34.68;nan
7986;BME280;4038;42.612;23.066;2022-08-03T05:14:35;93179.56;;;35.55;nan
7986;BME280;4038;42.612;23.066;2022-08-03T05:17:04;93169.56;;;35.15;nan
7986;BME280;4038;42.612;23.066;2022-08-03T05:19:30;93176.31;;;35.23;nan
7986;BME280;4038;42.612;23.066;2022-08-03T05:21:55;93178.75;;;36.62;nan
7986;BME280;4038;42.612;23.066;2022-08-03T05:24:20;93167.13;;;36.32;nan
7986;BME280;4038;42.612;23.066;2022-08-03T05:26:46;93182.22;;;35.49;nan
7986;BME280;4038;42.612;23.066;2022-08-03T05:29:11;93179.13;;;36.50;nan
7986;BME280;4038;42.612;23.066;2022-08-03T05:31:37;93177.56;;;36.93;nan
7986;BME280;4038;42.612;23.066;2022-08-03T05:34:02;93182.16;;;37.04;nan
7986;BME280;4038;42.612;23.066;2022-08-03T05:36:27;93170.41;;;37.69;nan
7986;BME280;4038;42.612;23.066;2022-08-03T05:38:53;93173.56;;;36.78;nan
7986;BME280;4038;42.612;23.066;2022-08-03T05:41:18;93176.47;;;35.69;nan
7986;BME280;4038;42.612;23.066;2022-08-03T05:43:44;93170.34;;;36.20;nan
7986;BME280;4038;42.612;23.066;2022-08-03T05:46:09;93173.25;;;35.59;nan
7986;BME280;4038;42.612;23.066;2022-08-03T05:48:34;93178.03;;;35.52;nan
7986;BME280;4038;42.612;23.066;2022-08-03T05:51:00;93182.34;;;35.73;nan
7986;BME280;4038;42.612;23.066;2022-08-03T05:53:25;93173.41;;;37.22;nan
7986;BME280;4038;42.612;23.066;2022-08-03T05:55:51;93183.88;;;35.98;nan
7986;BME280;4038;42.612;23.066;2022-08-03T05:58:16;93187.22;;;38.41;nan
7986;BME280;4038;42.612;23.066;2022-08-03T06:00:42;93181.41;;;36.78;nan
7986;BME280;4038;42.612;23.066;2022-08-03T06:03:07;93183.81;;;37.88;nan
7986;BME280;4038;42.612;23.066;2022-08-03T06:05:32;93188.66;;;39.01;nan
7986;BME280;4038;42.612;23.066;2022-08-03T06:08:01;93189.19;;;38.62;nan
7986;BME280;4038;42.612;23.066;2022-08-03T06:10:27;93194.75;;;40.32;nan
7986;BME280;4038;42.612;23.066;2022-08-03T06:12:52;93197.88;;;43.11;nan
7986;BME280;4038;42.612;23.066;2022-08-03T06:15:17;93180.75;;;42.33;nan
7986;BME280;4038;42.612;23.066;2022-08-03T06:17:47;93185.28;;;44.08;nan
7986;BME280;4038;42.612;23.066;2022-08-03T06:20:15;93187.19;;;43.32;nan
7986;BME280;4038;42.612;23.066;2022-08-03T06:22:41;93184.16;;;43.06;nan
7986;BME280;4038;42.612;23.066;2022-08-03T06:25:07;93203.94;;;45.63;nan
7986;BME280;4038;42.612;23.066;2022-08-03T06:27:33;93196.28;;;47.24;nan
7986;BME280;4038;42.612;23.066;2022-08-03T06:29:58;93195.88;;;43.36;nan
7986;BME280;4038;42.612;23.066;2022-08-03T06:32:23;93202.53;;;41.80;nan
7986;BME280;4038;42.612;23.066;2022-08-03T06:34:49;93193.88;;;43.79;nan
7986;BME280;4038;42.612;23.066;2022-08-03T06:37:15;93187.50;;;44.62;nan
7986;BME280;4038;42.612;23.066;2022-08-03T06:39:40;93191.81;;;44.26;nan
7986;BME280;4038;42.612;23.066;2022-08-03T06:42:06;93196.84;;;46.57;nan
7986;BME280;4038;42.612;23.066;2022-08-03T06:44:31;93195.81;;;46.02;nan
7986;BME280;4038;42.612;23.066;2022-08-03T06:46:57;93183.34;;;47.77;nan
7986;BME280;4038;42.612;23.066;2022-08-03T06:49:23;93183.97;;;50.29;nan
7986;BME280;4038;42.612;23.066;2022-08-03T06:51:48;93183.03;;;46.66;nan
7986;BME280;4038;42.612;23.066;2022-08-03T06:54:15;93181.19;;;49.55;nan
7986;BME280;4038;42.612;23.066;2022-08-03T06:56:41;93172.41;;;47.79;nan
7986;BME280;4038;42.612;23.066;2022-08-03T06:59:07;93180.41;;;47.15;nan
7986;BME280;4038;42.612;23.066;2022-08-03T07:01:32;93180.59;;;46.97;nan
7986;BME280;4038;42.612;23.066;2022-08-03T07:03:58;93171.03;;;47.72;nan
7986;BME280;4038;42.612;23.066;2022-08-03T07:06:24;93177.16;;;47.48;nan
7986;BME280;4038;42.612;23.066;2022-08-03T07:08:50;93172.09;;;48.50;nan
7986;BME280;4038;42.612;23.066;2022-08-03T07:11:15;93166.25;;;48.05;nan
7986;BME280;4038;42.612;23.066;2022-08-03T07:13:41;93163.13;;;47.66;nan
7986;BME280;4038;42.612;23.066;2022-08-03T07:16:07;93176.69;;;46.41;nan
7986;BME280;4038;42.612;23.066;2022-08-03T07:18:36;93176.78;;;47.15;nan
7986;BME280;4038;42.612;23.066;2022-08-03T07:21:02;93172.00;;;47.54;nan
7986;BME280;4038;42.612;23.066;2022-08-03T07:23:27;93177.38;;;48.38;nan
7986;BME280;4038;42.612;23.066;2022-08-03T07:25:53;93173.03;;;47.24;nan
7986;BME280;4038;42.612;23.066;2022-08-03T07:28:19;93180.91;;;47.38;nan
7986;BME280;4038;42.612;23.066;2022-08-03T07:30:44;93183.19;;;44.73;nan
7986;BME280;4038;42.612;23.066;2022-08-03T07:33:10;93175.66;;;46.79;nan
7986;BME280;4038;42.612;23.066;2022-08-03T07:35:35;93174.03;;;47.00;nan
7986;BME280;4038;42.612;23.066;2022-08-03T07:38:01;93174.25;;;45.62;nan
7986;BME280;4038;42.612;23.066;2022-08-03T07:40:26;93175.78;;;45.51;nan
7986;BME280;4038;42.612;23.066;2022-08-03T07:42:51;93180.25;;;47.29;nan
7986;BME280;4038;42.612;23.066;2022-08-03T07:45:17;93173.84;;;47.80;nan
7986;BME280;4038;42.612;23.066;2022-08-03T07:47:42;93179.75;;;46.17;nan
7986;BME280;4038;42.612;23.066;2022-08-03T07:50:08;93183.56;;;43.26;nan
7986;BME280;4038;42.612;23.066;2022-08-03T07:52:33;93180.00;;;45.74;nan
7986;BME280;4038;42.612;23.066;2022-08-03T07:55:22;93175.78;;;45.43;nan
7986;BME280;4038;42.612;23.066;2022-08-03T07:58:01;93192.72;;;46.32;nan
7986;BME280;4038;42.612;23.066;2022-08-03T08:00:27;93181.56;;;45.41;nan
7986;BME280;4038;42.612;23.066;2022-08-03T08:02:52;93171.13;;;47.68;nan
7986;BME280;4038;42.612;23.066;2022-08-03T08:05:18;93186.25;;;46.19;nan
7986;BME280;4038;42.612;23.066;2022-08-03T08:07:43;93186.28;;;46.21;nan
7986;BME280;4038;42.612;23.066;2022-08-03T08:10:09;93175.88;;;43.93;nan
7986;BME280;4038;42.612;23.066;2022-08-03T08:12:35;93178.84;;;44.50;nan
7986;BME280;4038;42.612;23.066;2022-08-03T08:15:01;93184.28;;;43.30;nan
7986;BME280;4038;42.612;23.066;2022-08-03T08:17:27;93188.94;;;44.63;nan
7986;BME280;4038;42.612;23.066;2022-08-03T08:19:52;93187.38;;;45.39;nan
7986;BME280;4038;42.612;23.066;2022-08-03T08:22:18;93187.13;;;46.91;nan
7986;BME280;4038;42.612;23.066;2022-08-03T08:24:43;93191.00;;;47.41;nan
7986;BME280;4038;42.612;23.066;2022-08-03T08:27:09;93184.13;;;48.26;nan
7986;BME280;4038;42.612;23.066;2022-08-03T08:29:36;93183.81;;;50.02;nan
7986;BME280;4038;42.612;23.066;2022-08-03T08:32:02;93182.19;;;49.40;nan
7986;BME280;4038;42.612;23.066;2022-08-03T08:34:28;93185.72;;;50.49;nan
7986;BME280;4038;42.612;23.066;2022-08-03T08:36:53;93179.41;;;47.98;nan
7986;BME280;4038;42.612;23.066;2022-08-03T08:39:18;93185.38;;;46.41;nan
7986;BME280;4038;42.612;23.066;2022-08-03T08:41:44;93177.38;;;44.59;nan
7986;BME280;4038;42.612;23.066;2022-08-03T08:44:09;93189.41;;;45.73;nan
7986;BME280;4038;42.612;23.066;2022-08-03T08:46:37;93170.94;;;42.68;nan
7986;BME280;4038;42.612;23.066;2022-08-03T08:49:06;93181.41;;;45.79;nan
7986;BME280;4038;42.612;23.066;2022-08-03T08:51:33;93171.72;;;49.16;nan
7986;BME280;4038;42.612;23.066;2022-08-03T08:54:02;93177.81;;;45.77;nan
7986;BME280;4038;42.612;23.066;2022-08-03T08:56:30;93173.84;;;46.35;nan
7986;BME280;4038;42.612;23.066;2022-08-03T08:58:58;93167.97;;;46.43;nan
7986;BME280;4038;42.612;23.066;2022-08-03T09:01:24;93161.44;;;45.00;nan
7986;BME280;4038;42.612;23.066;2022-08-03T09:03:50;93160.28;;;46.97;nan
7986;BME280;4038;42.612;23.066;2022-08-03T09:06:17;93174.81;;;46.97;nan
7986;BME280;4038;42.612;23.066;2022-08-03T09:08:43;93163.94;;;48.61;nan
7986;BME280;4038;42.612;23.066;2022-08-03T09:11:08;93167.94;;;47.88;nan
7986;BME280;4038;42.612;23.066;2022-08-03T09:13:34;93162.75;;;47.37;nan
7986;BME280;4038;42.612;23.066;2022-08-03T09:16:15;93173.97;;;46.17;nan
7986;BME280;4038;42.612;23.066;2022-08-03T09:18:43;93173.00;;;45.17;nan
7986;BME280;4038;42.612;23.066;2022-08-03T09:21:25;93154.88;;;45.18;nan
7986;BME280;4038;42.612;23.066;2022-08-03T09:23:55;93164.25;;;45.25;nan
7986;BME280;4038;42.612;23.066;2022-08-03T09:26:27;93155.59;;;43.77;nan
7986;BME280;4038;42.612;23.066;2022-08-03T09:28:58;93164.81;;;43.31;nan
7986;BME280;4038;42.612;23.066;2022-08-03T09:34:04;93173.06;;;44.72;nan
7986;BME280;4038;42.612;23.066;2022-08-03T09:36:33;93174.94;;;43.40;nan
7986;BME280;4038;42.612;23.066;2022-08-03T09:39:05;93160.47;;;42.21;nan
7986;BME280;4038;42.612;23.066;2022-08-03T09:41:32;93159.44;;;41.90;nan
7986;BME280;4038;42.612;23.066;2022-08-03T09:43:58;93164.38;;;44.58;nan
7986;BME280;4038;42.612;23.066;2022-08-03T09:46:23;93170.09;;;45.02;nan
7986;BME280;4038;42.612;23.066;2022-08-03T09:48:49;93150.44;;;43.37;nan
7986;BME280;4038;42.612;23.066;2022-08-03T09:51:14;93160.00;;;44.24;nan
7986;BME280;4038;42.612;23.066;2022-08-03T09:53:46;93158.59;;;44.29;nan
7986;BME280;4038;42.612;23.066;2022-08-03T09:56:12;93159.63;;;46.86;nan
7986;BME280;4038;42.612;23.066;2022-08-03T09:58:45;93159.84;;;47.40;nan
7986;BME280;4038;42.612;23.066;2022-08-03T10:01:11;93166.03;;;47.68;nan
7986;BME280;4038;42.612;23.066;2022-08-03T10:03:38;93166.66;;;47.12;nan
7986;BME280;4038;42.612;23.066;2022-08-03T10:06:15;93151.94;;;47.89;nan
7986;BME280;4038;42.612;23.066;2022-08-03T10:08:40;93151.72;;;48.03;nan
7986;BME280;4038;42.612;23.066;2022-08-03T10:11:06;93157.22;;;48.26;nan
7986;BME280;4038;42.612;23.066;2022-08-03T10:13:31;93149.63;;;48.47;nan
7986;BME280;4038;42.612;23.066;2022-08-03T10:15:57;93143.72;;;50.36;nan
7986;BME280;4038;42.612;23.066;2022-08-03T10:18:23;93153.13;;;46.86;nan
7986;BME280;4038;42.612;23.066;2022-08-03T10:20:51;93147.31;;;46.86;nan
7986;BME280;4038;42.612;23.066;2022-08-03T10:23:18;93152.56;;;45.59;nan
7986;BME280;4038;42.612;23.066;2022-08-03T10:25:46;93143.75;;;45.85;nan
7986;BME280;4038;42.612;23.066;2022-08-03T10:28:15;93143.88;;;45.59;nan
7986;BME280;4038;42.612;23.066;2022-08-03T10:30:46;93144.09;;;43.95;nan
7986;BME280;4038;42.612;23.066;2022-08-03T10:33:21;93136.16;;;44.62;nan
7986;BME280;4038;42.612;23.066;2022-08-03T10:35:51;93138.97;;;45.13;nan
7986;BME280;4038;42.612;23.066;2022-08-03T10:38:19;93138.41;;;46.27;nan
7986;BME280;4038;42.612;23.066;2022-08-03T10:40:47;93138.16;;;47.32;nan
7986;BME280;4038;42.612;23.066;2022-08-03T10:43:37;93126.47;;;47.36;nan
7986;BME280;4038;42.612;23.066;2022-08-03T10:46:06;93138.47;;;46.14;nan
7986;BME280;4038;42.612;23.066;2022-08-03T10:48:34;93124.31;;;46.66;nan
7986;BME280;4038;42.612;23.066;2022-08-03T10:51:00;93121.75;;;44.08;nan
7986;BME280;4038;42.612;23.066;2022-08-03T10:53:37;93121.16;;;42.62;nan
7986;BME280;4038;42.612;23.066;2022-08-03T10:56:03;93119.53;;;44.63;nan
7986;BME280;4038;42.612;23.066;2022-08-03T10:58:51;93129.66;;;44.82;nan
7986;BME280;4038;42.612;23.066;2022-08-03T11:01:19;93126.78;;;44.27;nan
7986;BME280;4038;42.612;23.066;2022-08-03T11:06:29;93118.03;;;45.08;nan
7986;BME280;4038;42.612;23.066;2022-08-03T11:11:36;93115.97;;;44.00;nan
7986;BME280;4038;42.612;23.066;2022-08-03T11:14:20;93107.28;;;44.42;nan
7986;BME280;4038;42.612;23.066;2022-08-03T11:16:48;93107.97;;;43.90;nan
7986;BME280;4038;42.612;23.066;2022-08-03T11:19:19;93114.22;;;46.58;nan
7986;BME280;4038;42.612;23.066;2022-08-03T11:27:20;93105.91;;;46.10;nan
7986;BME280;4038;42.612;23.066;2022-08-03T11:46:09;93100.22;;;40.52;nan
7986;BME280;4038;42.612;23.066;2022-08-03T11:48:49;93106.38;;;39.86;nan
7986;BME280;4038;42.612;23.066;2022-08-03T11:51:29;93108.53;;;40.80;nan
7986;BME280;4038;42.612;23.066;2022-08-03T11:53:59;93099.34;;;41.52;nan
7986;BME280;4038;42.612;23.066;2022-08-03T11:56:25;93098.09;;;41.73;nan
7986;BME280;4038;42.612;23.066;2022-08-03T11:58:55;93108.78;;;40.46;nan
7986;BME280;4038;42.612;23.066;2022-08-03T12:01:23;93106.41;;;41.43;nan
7986;BME280;4038;42.612;23.066;2022-08-03T12:03:49;93110.22;;;40.01;nan
7986;BME280;4038;42.612;23.066;2022-08-03T12:06:16;93115.63;;;40.73;nan
7986;BME280;4038;42.612;23.066;2022-08-03T12:08:43;93104.66;;;40.13;nan
7986;BME280;4038;42.612;23.066;2022-08-03T12:11:10;93108.53;;;39.10;nan
7986;BME280;4038;42.612;23.066;2022-08-03T12:13:49;93113.16;;;38.57;nan
7986;BME280;4038;42.612;23.066;2022-08-03T12:16:24;93115.44;;;39.72;nan
7986;BME280;4038;42.612;23.066;2022-08-03T12:18:58;93085.66;;;39.12;nan
7986;BME280;4038;42.612;23.066;2022-08-03T12:21:24;93108.84;;;38.56;nan
7986;BME280;4038;42.612;23.066;2022-08-03T12:23:50;93100.50;;;39.38;nan
7986;BME280;4038;42.612;23.066;2022-08-03T12:26:20;93104.34;;;39.93;nan
7986;BME280;4038;42.612;23.066;2022-08-03T12:28:49;93108.31;;;39.73;nan
7986;BME280;4038;42.612;23.066;2022-08-03T12:31:14;93097.41;;;39.28;nan
7986;BME280;4038;42.612;23.066;2022-08-03T12:36:22;93099.97;;;39.50;nan
7986;BME280;4038;42.612;23.066;2022-08-03T12:39:06;93106.97;;;40.69;nan
7986;BME280;4038;42.612;23.066;2022-08-03T12:41:32;93110.78;;;39.91;nan
7986;BME280;4038;42.612;23.066;2022-08-03T12:43:59;93098.38;;;39.38;nan
7986;BME280;4038;42.612;23.066;2022-08-03T12:46:33;93090.94;;;41.76;nan
7986;BME280;4038;42.612;23.066;2022-08-03T12:51:26;93093.09;;;40.57;nan
7986;BME280;4038;42.612;23.066;2022-08-03T12:53:54;93095.47;;;40.23;nan
7986;BME280;4038;42.612;23.066;2022-08-03T12:56:19;93096.13;;;41.19;nan
7986;BME280;4038;42.612;23.066;2022-08-03T12:58:45;93094.13;;;41.34;nan
7986;BME280;4038;42.612;23.066;2022-08-03T13:01:12;93098.97;;;40.17;nan
7986;BME280;4038;42.612;23.066;2022-08-03T13:03:44;93093.13;;;41.11;nan
7986;BME280;4038;42.612;23.066;2022-08-03T13:06:15;93086.28;;;42.19;nan
7986;BME280;4038;42.612;23.066;2022-08-03T13:08:42;93075.91;;;41.13;nan
7986;BME280;4038;42.612;23.066;2022-08-03T13:13:42;93083.94;;;40.67;nan
7986;BME280;4038;42.612;23.066;2022-08-03T13:16:08;93080.16;;;41.79;nan
7986;BME280;4038;42.612;23.066;2022-08-03T13:18:33;93076.44;;;41.00;nan
7986;BME280;4038;42.612;23.066;2022-08-03T13:20:58;93078.94;;;40.71;nan
7986;BME280;4038;42.612;23.066;2022-08-03T13:23:24;93080.72;;;40.44;nan
7986;BME280;4038;42.612;23.066;2022-08-03T13:25:49;93071.44;;;41.02;nan
7986;BME280;4038;42.612;23.066;2022-08-03T13:28:15;93085.50;;;40.76;nan
7986;BME280;4038;42.612;23.066;2022-08-03T13:30:40;93078.16;;;41.91;nan
7986;BME280;4038;42.612;23.066;2022-08-03T13:33:07;93088.09;;;41.80;nan
7986;BME280;4038;42.612;23.066;2022-08-03T13:35:33;93079.72;;;42.08;nan
7986;BME280;4038;42.612;23.066;2022-08-03T13:37:58;93080.63;;;41.51;nan
7986;BME280;4038;42.612;23.066;2022-08-03T13:40:23;93079.41;;;40.51;nan
7986;BME280;4038;42.612;23.066;2022-08-03T13:42:49;93081.09;;;42.01;nan
7986;BME280;4038;42.612;23.066;2022-08-03T13:45:14;93085.63;;;42.31;nan
7986;BME280;4038;42.612;23.066;2022-08-03T13:47:40;93074.41;;;41.77;nan
7986;BME280;4038;42.612;23.066;2022-08-03T13:50:05;93075.56;;;42.32;nan
7986;BME280;4038;42.612;23.066;2022-08-03T13:52:32;93076.16;;;41.38;nan
7986;BME280;4038;42.612;23.066;2022-08-03T13:54:58;93080.25;;;42.86;nan
7986;BME280;4038;42.612;23.066;2022-08-03T13:57:24;93072.59;;;43.75;nan
7986;BME280;4038;42.612;23.066;2022-08-03T13:59:49;93063.50;;;42.60;nan
7986;BME280;4038;42.612;23.066;2022-08-03T14:02:15;93060.88;;;41.93;nan
7986;BME280;4038;42.612;23.066;2022-08-03T14:04:40;93073.72;;;42.83;nan
7986;BME280;4038;42.612;23.066;2022-08-03T14:07:05;93061.78;;;43.98;nan
7986;BME280;4038;42.612;23.066;2022-08-03T14:09:31;93075.25;;;42.98;nan
7986;BME280;4038;42.612;23.066;2022-08-03T14:11:56;93063.81;;;43.20;nan
7986;BME280;4038;42.612;23.066;2022-08-03T14:14:22;93060.22;;;42.01;nan
7986;BME280;4038;42.612;23.066;2022-08-03T14:16:47;93067.78;;;41.62;nan
7986;BME280;4038;42.612;23.066;2022-08-03T14:19:12;93054.59;;;41.39;nan
7986;BME280;4038;42.612;23.066;2022-08-03T14:21:39;93068.19;;;42.08;nan